sensor_id;sensor_type;location;lat;lon;timestamp;pressure;altitude;pressure_sealevel;temperature;humidity
29461;BME280;16428;47.836;35.106;2022-12-08T00:00:42;101750.50;;;0.21;100.00
29461;BME280;16428;47.836;35.106;2022-12-08T00:03:11;101753.41;;;0.17;100.00
29461;BME280;16428;47.836;35.106;2022-12-08T00:05:48;101749.81;;;0.18;100.00
29461;BME280;16428;47.836;35.106;2022-12-08T00:08:36;101740.56;;;0.11;100.00
29461;BME280;16428;47.836;35.106;2022-12-08T00:11:24;101740.97;;;0.19;100.00
29461;BME280;16428;47.836;35.106;2022-12-08T00:13:52;101730.06;;;0.25;100.00
29461;BME280;16428;47.836;35.106;2022-12-08T00:16:25;101741.56;;;0.24;100.00
29461;BME280;16428;47.836;35.106;2022-12-08T00:18:53;101732.97;;;0.20;100.00
29461;BME280;16428;47.836;35.106;2022-12-08T00:21:21;101735.84;;;0.31;100.00
29461;BME280;16428;47.836;35.106;2022-12-08T00:23:53;101731.94;;;0.23;100.00
29461;BME280;16428;47.836;35.106;2022-12-08T00:26:23;101728.19;;;0.27;100.00
29461;BME280;16428;47.836;35.106;2022-12-08T00:28:52;101729.13;;;0.26;100.00
29461;BME280;16428;47.836;35.106;2022-12-08T00:31:20;101725.72;;;0.24;100.00
29461;BME280;16428;47.836;35.106;2022-12-08T00:33:48;101731.41;;;0.32;100.00
29461;BME280;16428;47.836;35.106;2022-12-08T00:36:16;101728.19;;;0.43;100.00
29461;BME280;16428;47.836;35.106;2022-12-08T00:38:45;101726.31;;;0.45;100.00
29461;BME280;16428;47.836;35.106;2022-12-08T00:41:18;101734.81;;;0.34;100.00
29461;BME280;16428;47.836;35.106;2022-12-08T00:44:15;101735.00;;;0.31;100.00
29461;BME280;16428;47.836;35.106;2022-12-08T00:46:47;101742.66;;;0.35;100.00
29461;BME280;16428;47.836;35.106;2022-12-08T00:49:16;101738.06;;;0.39;100.00
29461;BME280;16428;47.836;35.106;2022-12-08T00:51:45;101737.72;;;0.45;100.00
29461;BME280;16428;47.836;35.106;2022-12-08T00:54:13;101717.31;;;0.47;100.00
29461;BME280;16428;47.836;35.106;2022-12-08T00:56:43;101714.38;;;0.38;100.00
29461;BME280;16428;47.836;35.106;2022-12-08T00:59:11;101710.69;;;0.40;100.00
29461;BME280;16428;47.836;35.106;2022-12-08T01:01:43;101721.34;;;0.54;100.00
29461;BME280;16428;47.836;35.106;2022-12-08T01:04:16;101702.22;;;0.49;100.00
29461;BME280;16428;47.836;35.106;2022-12-08T01:06:46;101708.22;;;0.37;100.00
29461;BME280;16428;47.836;35.106;2022-12-08T01:09:16;101715.53;;;0.32;100.00
29461;BME280;16428;47.836;35.106;2022-12-08T01:11:45;101713.50;;;0.37;100.00
29461;BME280;16428;47.836;35.106;2022-12-08T04:57:30;101761.63;;;3.12;100.00
29461;BME280;16428;47.836;35.106;2022-12-08T04:59:58;101772.88;;;3.03;100.00
29461;BME280;16428;47.836;35.106;2022-12-08T05:02:35;101771.09;;;3.16;100.00
29461;BME280;16428;47.836;35.106;2022-12-08T05:05:05;101782.25;;;3.21;100.00
29461;BME280;16428;47.836;35.106;2022-12-08T05:07:36;101779.16;;;3.14;100.00
29461;BME280;16428;47.836;35.106;2022-12-08T05:10:06;101779.81;;;2.78;100.00
29461;BME280;16428;47.836;35.106;2022-12-08T05:12:35;101789.69;;;3.16;100.00
29461;BME280;16428;47.836;35.106;2022-12-08T05:15:04;101784.63;;;2.86;100.00
29461;BME280;16428;47.836;35.106;2022-12-08T05:17:36;101779.00;;;2.91;100.00
29461;BME280;16428;47.836;35.106;2022-12-08T05:20:05;101789.00;;;3.00;100.00
29461;BME280;16428;47.836;35.106;2022-12-08T05:22:38;101780.28;;;2.98;100.00
29461;BME280;16428;47.836;35.106;2022-12-08T05:25:06;101793.63;;;3.23;100.00
29461;BME280;16428;47.836;35.106;2022-12-08T05:27:36;101793.00;;;2.93;100.00
29461;BME280;16428;47.836;35.106;2022-12-08T05:30:05;101796.84;;;2.89;100.00
29461;BME280;16428;47.836;35.106;2022-12-08T05:32:34;101805.09;;;2.84;100.00
29461;BME280;16428;47.836;35.106;2022-12-08T05:35:03;101794.44;;;2.71;100.00
29461;BME280;16428;47.836;35.106;2022-12-08T05:37:31;101797.13;;;2.84;100.00
29461;BME280;16428;47.836;35.106;2022-12-08T05:40:00;101798.31;;;2.93;100.00
29461;BME280;16428;47.836;35.106;2022-12-08T05:42:30;101805.03;;;2.98;100.00
29461;BME280;16428;47.836;35.106;2022-12-08T05:45:00;101810.31;;;2.86;100.00
29461;BME280;16428;47.836;35.106;2022-12-08T05:47:30;101805.47;;;2.78;100.00
29461;BME280;16428;47.836;35.106;2022-12-08T05:50:04;101806.34;;;2.78;100.00
29461;BME280;16428;47.836;35.106;2022-12-08T05:52:35;101807.50;;;2.74;100.00
29461;BME280;16428;47.836;35.106;2022-12-08T05:55:03;101810.41;;;2.84;100.00
29461;BME280;16428;47.836;35.106;2022-12-08T05:57:31;101794.81;;;2.65;100.00
29461;BME280;16428;47.836;35.106;2022-12-08T06:00:00;101797.47;;;2.65;100.00
29461;BME280;16428;47.836;35.106;2022-12-08T06:02:31;101792.03;;;2.54;100.00
29461;BME280;16428;47.836;35.106;2022-12-08T06:04:59;101795.03;;;2.62;100.00
29461;BME280;16428;47.836;35.106;2022-12-08T06:07:28;101802.59;;;2.68;100.00
29461;BME280;16428;47.836;35.106;2022-12-08T06:09:58;101807.28;;;2.77;100.00
29461;BME280;16428;47.836;35.106;2022-12-08T06:12:26;101813.34;;;2.79;100.00
29461;BME280;16428;47.836;35.106;2022-12-08T06:14:55;101809.06;;;2.50;100.00
29461;BME280;16428;47.836;35.106;2022-12-08T06:17:24;101807.94;;;2.54;100.00
29461;BME280;16428;47.836;35.106;2022-12-08T06:19:52;101811.31;;;2.70;100.00
29461;BME280;16428;47.836;35.106;2022-12-08T06:22:21;101822.09;;;2.67;100.00
29461;BME280;16428;47.836;35.106;2022-12-08T06:24:50;101813.09;;;2.70;100.00
29461;BME280;16428;47.836;35.106;2022-12-08T06:27:19;101810.31;;;2.59;100.00
29461;BME280;16428;47.836;35.106;2022-12-08T06:29:51;101809.16;;;2.48;100.00
29461;BME280;16428;47.836;35.106;2022-12-08T06:32:19;101817.00;;;2.64;100.00
29461;BME280;16428;47.836;35.106;2022-12-08T06:34:55;101809.69;;;2.68;100.00
29461;BME280;16428;47.836;35.106;2022-12-08T06:37:24;101808.00;;;2.67;100.00
29461;BME280;16428;47.836;35.106;2022-12-08T06:39:53;101810.34;;;2.71;100.00
29461;BME280;16428;47.836;35.106;2022-12-08T06:42:22;101801.16;;;2.36;100.00
29461;BME280;16428;47.836;35.106;2022-12-08T06:45:13;101798.88;;;2.30;100.00
29461;BME280;16428;47.836;35.106;2022-12-08T06:47:42;101805.03;;;2.30;100.00
29461;BME280;16428;47.836;35.106;2022-12-08T06:50:12;101807.13;;;2.66;100.00
29461;BME280;16428;47.836;35.106;2022-12-08T06:52:40;101806.34;;;2.52;100.00
29461;BME280;16428;47.836;35.106;2022-12-08T06:55:30;101813.81;;;2.45;100.00
29461;BME280;16428;47.836;35.106;2022-12-08T06:58:20;101816.66;;;2.56;100.00
29461;BME280;16428;47.836;35.106;2022-12-08T07:00:49;101817.91;;;2.36;100.00
29461;BME280;16428;47.836;35.106;2022-12-08T07:03:18;101816.47;;;2.45;100.00
29461;BME280;16428;47.836;35.106;2022-12-08T07:05:47;101812.97;;;2.59;100.00
29461;BME280;16428;47.836;35.106;2022-12-08T07:08:16;101823.34;;;2.62;100.00
29461;BME280;16428;47.836;35.106;2022-12-08T14:53:14;101822.97;;;7.62;100.00
29461;BME280;16428;47.836;35.106;2022-12-08T14:55:50;101825.81;;;7.70;99.45
29461;BME280;16428;47.836;35.106;2022-12-08T14:59:18;101818.03;;;7.26;100.00
29461;BME280;16428;47.836;35.106;2022-12-08T15:02:07;101821.81;;;7.23;100.00
29461;BME280;16428;47.836;35.106;2022-12-08T15:04:43;101822.28;;;6.96;100.00
29461;BME280;16428;47.836;35.106;2022-12-08T15:07:50;101819.03;;;7.25;100.00
29461;BME280;16428;47.836;35.106;2022-12-08T15:10:31;101820.47;;;7.29;100.00
29461;BME280;16428;47.836;35.106;2022-12-08T15:13:20;101823.31;;;7.37;100.00
29461;BME280;16428;47.836;35.106;2022-12-08T15:19:31;101831.75;;;7.53;100.00
29461;BME280;16428;47.836;35.106;2022-12-08T15:22:18;101828.31;;;7.10;100.00
29461;BME280;16428;47.836;35.106;2022-12-08T15:24:54;101826.56;;;7.20;100.00
29461;BME280;16428;47.836;35.106;2022-12-08T15:27:27;101821.75;;;7.14;100.00
29461;BME280;16428;47.836;35.106;2022-12-08T15:30:23;101816.84;;;7.19;100.00
29461;BME280;16428;47.836;35.106;2022-12-08T15:32:57;101825.38;;;7.13;100.00
29461;BME280;16428;47.836;35.106;2022-12-08T15:35:32;101823.72;;;7.32;100.00
29461;BME280;16428;47.836;35.106;2022-12-08T15:38:26;101822.78;;;7.01;100.00
29461;BME280;16428;47.836;35.106;2022-12-08T15:41:01;101832.31;;;6.72;100.00
29461;BME280;16428;47.836;35.106;2022-12-08T15:43:40;101836.53;;;6.75;100.00
29461;BME280;16428;47.836;35.106;2022-12-08T15:46:10;101834.84;;;6.74;100.00
29461;BME280;16428;47.836;35.106;2022-12-08T15:48:42;101842.00;;;6.73;100.00
29461;BME280;16428;47.836;35.106;2022-12-08T15:51:15;101829.66;;;6.61;100.00
29461;BME280;16428;47.836;35.106;2022-12-08T15:53:46;101840.81;;;6.66;100.00
29461;BME280;16428;47.836;35.106;2022-12-08T15:56:16;101847.00;;;6.66;100.00
29461;BME280;16428;47.836;35.106;2022-12-08T15:59:08;101838.41;;;6.63;100.00
29461;BME280;16428;47.836;35.106;2022-12-08T16:01:47;101837.91;;;6.58;100.00
29461;BME280;16428;47.836;35.106;2022-12-08T16:04:19;101839.16;;;6.54;100.00
29461;BME280;16428;47.836;35.106;2022-12-08T16:07:27;101842.66;;;6.43;100.00
29461;BME280;16428;47.836;35.106;2022-12-08T16:09:56;101837.09;;;6.46;100.00
29461;BME280;16428;47.836;35.106;2022-12-08T16:12:27;101836.63;;;6.08;100.00
29461;BME280;16428;47.836;35.106;2022-12-08T16:15:47;101846.91;;;6.46;100.00
29461;BME280;16428;47.836;35.106;2022-12-08T16:18:33;101838.91;;;6.46;100.00
29461;BME280;16428;47.836;35.106;2022-12-08T16:21:04;101838.91;;;6.34;100.00
29461;BME280;16428;47.836;35.106;2022-12-08T16:23:48;101844.75;;;6.40;100.00
29461;BME280;16428;47.836;35.106;2022-12-08T16:26:21;101841.34;;;6.38;100.00
29461;BME280;16428;47.836;35.106;2022-12-08T16:29:18;101834.78;;;6.42;100.00
29461;BME280;16428;47.836;35.106;2022-12-08T16:31:52;101843.50;;;6.44;100.00
29461;BME280;16428;47.836;35.106;2022-12-08T16:34:24;101834.06;;;6.40;100.00
29461;BME280;16428;47.836;35.106;2022-12-08T16:37:15;101833.47;;;6.25;100.00
29461;BME280;16428;47.836;35.106;2022-12-08T16:39:51;101831.50;;;6.49;100.00
29461;BME280;16428;47.836;35.106;2022-12-08T16:42:24;101833.19;;;6.61;100.00
29461;BME280;16428;47.836;35.106;2022-12-08T16:45:31;101830.25;;;6.64;100.00
29461;BME280;16428;47.836;35.106;2022-12-08T16:48:00;101840.09;;;6.64;100.00
29461;BME280;16428;47.836;35.106;2022-12-08T16:50:32;101837.09;;;6.24;100.00
29461;BME280;16428;47.836;35.106;2022-12-08T16:53:07;101835.91;;;6.39;100.00
29461;BME280;16428;47.836;35.106;2022-12-08T16:55:39;101826.53;;;6.33;100.00
29461;BME280;16428;47.836;35.106;2022-12-08T16:58:08;101820.97;;;6.37;100.00
29461;BME280;16428;47.836;35.106;2022-12-08T17:00:38;101827.41;;;6.34;100.00
29461;BME280;16428;47.836;35.106;2022-12-08T17:03:12;101832.25;;;6.29;100.00
29461;BME280;16428;47.836;35.106;2022-12-08T17:05:45;101836.00;;;6.49;100.00
29461;BME280;16428;47.836;35.106;2022-12-08T17:08:14;101835.03;;;6.39;100.00
29461;BME280;16428;47.836;35.106;2022-12-08T17:10:44;101830.91;;;6.34;100.00
29461;BME280;16428;47.836;35.106;2022-12-08T17:13:37;101829.94;;;6.35;100.00
29461;BME280;16428;47.836;35.106;2022-12-08T17:16:12;101816.06;;;5.86;100.00
29461;BME280;16428;47.836;35.106;2022-12-08T17:18:47;101812.50;;;6.20;100.00
29461;BME280;16428;47.836;35.106;2022-12-08T17:21:19;101811.84;;;6.28;100.00
29461;BME280;16428;47.836;35.106;2022-12-08T17:23:59;101816.22;;;6.29;100.00
29461;BME280;16428;47.836;35.106;2022-12-08T17:26:31;101822.19;;;6.21;100.00
29461;BME280;16428;47.836;35.106;2022-12-08T17:29:02;101809.22;;;6.17;100.00
29461;BME280;16428;47.836;35.106;2022-12-08T17:31:32;101788.22;;;6.01;100.00
29461;BME280;16428;47.836;35.106;2022-12-08T17:34:06;101784.13;;;6.08;100.00
29461;BME280;16428;47.836;35.106;2022-12-08T17:36:53;101787.75;;;6.07;100.00
29461;BME280;16428;47.836;35.106;2022-12-08T17:39:24;101780.22;;;6.12;100.00
29461;BME280;16428;47.836;35.106;2022-12-08T17:42:20;101779.13;;;6.26;100.00
29461;BME280;16428;47.836;35.106;2022-12-08T17:45:11;101775.34;;;6.28;100.00
29461;BME280;16428;47.836;35.106;2022-12-08T17:47:46;101778.03;;;6.17;100.00
29461;BME280;16428;47.836;35.106;2022-12-08T17:50:18;101776.81;;;6.32;100.00
29461;BME280;16428;47.836;35.106;2022-12-08T17:52:51;101780.47;;;6.20;100.00
29461;BME280;16428;47.836;35.106;2022-12-08T17:55:23;101756.94;;;6.25;100.00
29461;BME280;16428;47.836;35.106;2022-12-08T17:57:55;101754.97;;;6.27;100.00
29461;BME280;16428;47.836;35.106;2022-12-08T18:00:40;101759.91;;;6.54;100.00
29461;BME280;16428;47.836;35.106;2022-12-08T18:03:12;101754.28;;;6.57;100.00
29461;BME280;16428;47.836;35.106;2022-12-08T18:05:46;101760.81;;;6.21;100.00
29461;BME280;16428;47.836;35.106;2022-12-08T18:08:19;101759.84;;;6.22;100.00
29461;BME280;16428;47.836;35.106;2022-12-08T18:11:15;101770.75;;;6.19;100.00
29461;BME280;16428;47.836;35.106;2022-12-08T18:13:56;101764.47;;;6.09;100.00
29461;BME280;16428;47.836;35.106;2022-12-08T18:16:26;101766.88;;;6.12;100.00
29461;BME280;16428;47.836;35.106;2022-12-08T18:18:56;101767.22;;;6.30;100.00
29461;BME280;16428;47.836;35.106;2022-12-08T18:21:25;101772.69;;;6.28;100.00
29461;BME280;16428;47.836;35.106;2022-12-08T18:23:57;101767.47;;;6.27;100.00
29461;BME280;16428;47.836;35.106;2022-12-08T18:26:28;101778.66;;;6.21;100.00
29461;BME280;16428;47.836;35.106;2022-12-08T18:29:11;101783.38;;;6.17;100.00
29461;BME280;16428;47.836;35.106;2022-12-08T18:32:05;101787.97;;;6.26;100.00
29461;BME280;16428;47.836;35.106;2022-12-08T18:34:37;101786.66;;;5.98;100.00
29461;BME280;16428;47.836;35.106;2022-12-08T18:37:13;101787.25;;;6.24;100.00
29461;BME280;16428;47.836;35.106;2022-12-08T18:39:43;101789.66;;;6.27;100.00
29461;BME280;16428;47.836;35.106;2022-12-08T18:42:14;101791.88;;;6.22;100.00
29461;BME280;16428;47.836;35.106;2022-12-08T18:44:56;101791.63;;;6.25;100.00
29461;BME280;16428;47.836;35.106;2022-12-08T18:47:36;101793.28;;;6.26;100.00
29461;BME280;16428;47.836;35.106;2022-12-08T18:50:14;101787.00;;;6.16;100.00
29461;BME280;16428;47.836;35.106;2022-12-08T18:52:56;101793.19;;;6.17;100.00
29461;BME280;16428;47.836;35.106;2022-12-08T18:55:26;101788.59;;;6.19;100.00
29461;BME280;16428;47.836;35.106;2022-12-08T18:57:57;101785.56;;;6.01;100.00
29461;BME280;16428;47.836;35.106;2022-12-08T19:00:27;101787.38;;;6.23;100.00
29461;BME280;16428;47.836;35.106;2022-12-08T19:03:00;101792.72;;;6.23;100.00
29461;BME280;16428;47.836;35.106;2022-12-08T19:05:30;101785.22;;;5.94;100.00
29461;BME280;16428;47.836;35.106;2022-12-08T19:08:14;101792.59;;;6.02;100.00
29461;BME280;16428;47.836;35.106;2022-12-08T19:10:45;101798.44;;;6.07;100.00
29461;BME280;16428;47.836;35.106;2022-12-08T19:13:14;101801.09;;;6.18;100.00
29461;BME280;16428;47.836;35.106;2022-12-08T19:15:47;101797.22;;;6.22;100.00
29461;BME280;16428;47.836;35.106;2022-12-08T19:18:18;101803.28;;;6.24;100.00
29461;BME280;16428;47.836;35.106;2022-12-08T19:20:46;101801.19;;;6.28;100.00
29461;BME280;16428;47.836;35.106;2022-12-08T19:23:16;101797.22;;;6.22;100.00
29461;BME280;16428;47.836;35.106;2022-12-08T19:25:45;101785.44;;;6.36;100.00
29461;BME280;16428;47.836;35.106;2022-12-08T19:28:19;101792.06;;;6.42;100.00
29461;BME280;16428;47.836;35.106;2022-12-08T19:30:48;101796.56;;;6.52;100.00
29461;BME280;16428;47.836;35.106;2022-12-08T22:49:00;101711.78;;;10.01;94.68
29461;BME280;16428;47.836;35.106;2022-12-08T22:51:30;101716.75;;;9.49;95.28
29461;BME280;16428;47.836;35.106;2022-12-08T22:53:59;101716.03;;;9.94;93.09
29461;BME280;16428;47.836;35.106;2022-12-08T22:56:29;101709.91;;;9.74;93.51
29461;BME280;16428;47.836;35.106;2022-12-08T22:58:57;101717.28;;;9.99;92.52
29461;BME280;16428;47.836;35.106;2022-12-08T23:01:31;101710.63;;;10.03;91.73
29461;BME280;16428;47.836;35.106;2022-12-08T23:04:00;101710.28;;;10.16;90.63
29461;BME280;16428;47.836;35.106;2022-12-08T23:06:30;101700.78;;;9.94;92.57
29461;BME280;16428;47.836;35.106;2022-12-08T23:09:00;101704.97;;;10.06;91.76
29461;BME280;16428;47.836;35.106;2022-12-08T23:11:30;101706.09;;;10.04;91.59
29461;BME280;16428;47.836;35.106;2022-12-08T23:14:02;101698.69;;;9.61;94.50
29461;BME280;16428;47.836;35.106;2022-12-08T23:16:30;101708.47;;;9.79;93.84
29461;BME280;16428;47.836;35.106;2022-12-08T23:19:00;101711.75;;;9.27;96.03
29461;BME280;16428;47.836;35.106;2022-12-08T23:21:29;101710.63;;;10.03;93.57
29461;BME280;16428;47.836;35.106;2022-12-08T23:23:59;101700.22;;;10.45;89.99
29461;BME280;16428;47.836;35.106;2022-12-08T23:26:31;101706.03;;;10.41;90.54
29461;BME280;16428;47.836;35.106;2022-12-08T23:29:01;101698.84;;;10.41;90.64
29461;BME280;16428;47.836;35.106;2022-12-08T23:31:30;101704.53;;;10.38;90.47
29461;BME280;16428;47.836;35.106;2022-12-08T23:34:00;101703.00;;;10.53;89.42
29461;BME280;16428;47.836;35.106;2022-12-08T23:36:31;101699.31;;;10.72;88.51
29461;BME280;16428;47.836;35.106;2022-12-08T23:39:01;101688.41;;;10.38;90.04
29461;BME280;16428;47.836;35.106;2022-12-08T23:41:30;101695.94;;;10.52;90.17
29461;BME280;16428;47.836;35.106;2022-12-08T23:43:59;101695.31;;;10.58;89.63
29461;BME280;16428;47.836;35.106;2022-12-08T23:46:28;101699.69;;;10.42;90.46
29461;BME280;16428;47.836;35.106;2022-12-08T23:48:59;101694.97;;;10.26;91.31
29461;BME280;16428;47.836;35.106;2022-12-08T23:51:29;101702.13;;;10.35;91.66
29461;BME280;16428;47.836;35.106;2022-12-08T23:53:58;101704.44;;;10.30;91.97
29461;BME280;16428;47.836;35.106;2022-12-08T23:56:28;101697.16;;;10.13;92.84
29461;BME280;16428;47.836;35.106;2022-12-08T23:58:59;101691.94;;;9.84;95.37
